sensor_id;sensor_type;location;lat;lon;timestamp;temperature;humidity
33994;DHT22;20673;48.980;8.138;2023-04-25T00:01:20;6.80;99.90
33994;DHT22;20673;48.980;8.138;2023-04-25T00:03:47;6.80;99.90
33994;DHT22;20673;48.980;8.138;2023-04-25T00:06:13;6.80;99.90
33994;DHT22;20673;48.980;8.138;2023-04-25T00:08:39;6.80;99.90
33994;DHT22;20673;48.980;8.138;2023-04-25T00:11:05;6.90;99.90
33994;DHT22;20673;48.980;8.138;2023-04-25T00:13:30;7.00;99.90
33994;DHT22;20673;48.980;8.138;2023-04-25T00:15:56;7.10;99.90
33994;DHT22;20673;48.980;8.138;2023-04-25T00:18:23;7.20;99.90
33994;DHT22;20673;48.980;8.138;2023-04-25T00:20:49;7.20;99.90
33994;DHT22;20673;48.980;8.138;2023-04-25T00:23:19;7.20;99.90
33994;DHT22;20673;48.980;8.138;2023-04-25T00:25:44;7.20;99.90
33994;DHT22;20673;48.980;8.138;2023-04-25T00:28:11;7.10;99.90
33994;DHT22;20673;48.980;8.138;2023-04-25T00:30:37;7.10;99.90
33994;DHT22;20673;48.980;8.138;2023-04-25T00:33:03;7.00;99.90
33994;DHT22;20673;48.980;8.138;2023-04-25T00:35:28;6.90;99.90
33994;DHT22;20673;48.980;8.138;2023-04-25T00:37:54;6.90;99.90
33994;DHT22;20673;48.980;8.138;2023-04-25T00:40:20;6.90;99.90
33994;DHT22;20673;48.980;8.138;2023-04-25T00:42:46;6.90;99.90
33994;DHT22;20673;48.980;8.138;2023-04-25T00:45:12;6.90;99.90
33994;DHT22;20673;48.980;8.138;2023-04-25T00:47:38;6.90;99.90
33994;DHT22;20673;48.980;8.138;2023-04-25T00:50:06;6.90;99.90
33994;DHT22;20673;48.980;8.138;2023-04-25T00:52:32;6.80;99.90
33994;DHT22;20673;48.980;8.138;2023-04-25T00:54:58;6.70;99.90
33994;DHT22;20673;48.980;8.138;2023-04-25T00:57:23;6.70;99.90
33994;DHT22;20673;48.980;8.138;2023-04-25T00:59:50;6.70;99.90
33994;DHT22;20673;48.980;8.138;2023-04-25T01:02:16;6.70;99.90
33994;DHT22;20673;48.980;8.138;2023-04-25T01:04:42;6.70;99.90
33994;DHT22;20673;48.980;8.138;2023-04-25T01:07:08;6.80;99.90
33994;DHT22;20673;48.980;8.138;2023-04-25T01:09:34;6.80;99.90
33994;DHT22;20673;48.980;8.138;2023-04-25T01:12:00;6.80;99.90
33994;DHT22;20673;48.980;8.138;2023-04-25T01:14:26;6.80;99.90
33994;DHT22;20673;48.980;8.138;2023-04-25T01:16:52;6.70;99.90
33994;DHT22;20673;48.980;8.138;2023-04-25T01:19:18;6.80;99.90
33994;DHT22;20673;48.980;8.138;2023-04-25T01:21:45;7.00;99.90
33994;DHT22;20673;48.980;8.138;2023-04-25T01:24:11;7.00;99.90
33994;DHT22;20673;48.980;8.138;2023-04-25T01:26:37;6.90;99.90
33994;DHT22;20673;48.980;8.138;2023-04-25T01:29:03;7.00;99.90
33994;DHT22;20673;48.980;8.138;2023-04-25T01:31:30;7.00;99.90
33994;DHT22;20673;48.980;8.138;2023-04-25T01:33:57;7.00;99.90
33994;DHT22;20673;48.980;8.138;2023-04-25T01:36:23;7.00;99.90
33994;DHT22;20673;48.980;8.138;2023-04-25T01:38:48;7.20;99.90
33994;DHT22;20673;48.980;8.138;2023-04-25T01:41:15;7.20;99.90
33994;DHT22;20673;48.980;8.138;2023-04-25T01:43:42;7.20;99.90
33994;DHT22;20673;48.980;8.138;2023-04-25T01:46:08;7.30;99.90
33994;DHT22;20673;48.980;8.138;2023-04-25T01:48:33;7.30;99.90
33994;DHT22;20673;48.980;8.138;2023-04-25T01:50:59;7.40;99.90
33994;DHT22;20673;48.980;8.138;2023-04-25T01:53:25;7.40;99.90
33994;DHT22;20673;48.980;8.138;2023-04-25T01:55:51;7.40;99.90
33994;DHT22;20673;48.980;8.138;2023-04-25T01:58:17;7.40;99.90
33994;DHT22;20673;48.980;8.138;2023-04-25T02:00:42;7.40;99.90
33994;DHT22;20673;48.980;8.138;2023-04-25T02:03:08;7.50;99.90
33994;DHT22;20673;48.980;8.138;2023-04-25T02:05:35;7.50;99.90
33994;DHT22;20673;48.980;8.138;2023-04-25T02:08:01;7.60;99.90
33994;DHT22;20673;48.980;8.138;2023-04-25T02:10:27;7.70;99.90
33994;DHT22;20673;48.980;8.138;2023-04-25T02:12:52;7.70;99.90
33994;DHT22;20673;48.980;8.138;2023-04-25T02:15:18;7.80;99.90
33994;DHT22;20673;48.980;8.138;2023-04-25T02:17:44;7.80;99.90
33994;DHT22;20673;48.980;8.138;2023-04-25T02:20:10;7.80;99.90
33994;DHT22;20673;48.980;8.138;2023-04-25T02:22:36;7.90;99.90
33994;DHT22;20673;48.980;8.138;2023-04-25T02:25:02;7.90;99.90
33994;DHT22;20673;48.980;8.138;2023-04-25T02:27:30;7.90;99.90
33994;DHT22;20673;48.980;8.138;2023-04-25T02:29:56;7.90;99.90
33994;DHT22;20673;48.980;8.138;2023-04-25T02:32:21;7.80;99.90
33994;DHT22;20673;48.980;8.138;2023-04-25T02:34:47;7.80;99.90
33994;DHT22;20673;48.980;8.138;2023-04-25T02:37:13;7.80;99.90
33994;DHT22;20673;48.980;8.138;2023-04-25T02:39:39;7.80;99.90
33994;DHT22;20673;48.980;8.138;2023-04-25T02:42:04;7.90;99.90
33994;DHT22;20673;48.980;8.138;2023-04-25T02:44:30;7.90;99.90
33994;DHT22;20673;48.980;8.138;2023-04-25T02:46:56;7.90;99.90
33994;DHT22;20673;48.980;8.138;2023-04-25T02:49:21;7.90;99.90
33994;DHT22;20673;48.980;8.138;2023-04-25T02:51:47;7.90;99.90
33994;DHT22;20673;48.980;8.138;2023-04-25T02:54:13;7.90;99.90
33994;DHT22;20673;48.980;8.138;2023-04-25T02:56:38;7.90;99.90
33994;DHT22;20673;48.980;8.138;2023-04-25T02:59:05;7.90;99.90
33994;DHT22;20673;48.980;8.138;2023-04-25T03:01:30;7.80;99.90
33994;DHT22;20673;48.980;8.138;2023-04-25T03:03:56;7.80;99.90
33994;DHT22;20673;48.980;8.138;2023-04-25T03:06:21;7.80;99.90
33994;DHT22;20673;48.980;8.138;2023-04-25T03:08:47;7.80;99.90
33994;DHT22;20673;48.980;8.138;2023-04-25T03:11:13;7.70;99.90
33994;DHT22;20673;48.980;8.138;2023-04-25T03:13:38;7.70;99.90
33994;DHT22;20673;48.980;8.138;2023-04-25T03:16:04;7.60;99.90
33994;DHT22;20673;48.980;8.138;2023-04-25T03:18:30;7.60;99.90
33994;DHT22;20673;48.980;8.138;2023-04-25T03:20:56;7.60;99.90
33994;DHT22;20673;48.980;8.138;2023-04-25T03:23:22;7.60;99.90
33994;DHT22;20673;48.980;8.138;2023-04-25T03:25:47;7.60;99.90
33994;DHT22;20673;48.980;8.138;2023-04-25T03:28:13;7.60;99.90
33994;DHT22;20673;48.980;8.138;2023-04-25T03:30:39;7.50;99.90
33994;DHT22;20673;48.980;8.138;2023-04-25T03:33:05;7.50;99.90
33994;DHT22;20673;48.980;8.138;2023-04-25T03:35:31;7.50;99.90
33994;DHT22;20673;48.980;8.138;2023-04-25T03:37:56;7.50;99.90
33994;DHT22;20673;48.980;8.138;2023-04-25T03:40:22;7.50;99.90
33994;DHT22;20673;48.980;8.138;2023-04-25T03:42:48;7.50;99.90
33994;DHT22;20673;48.980;8.138;2023-04-25T03:45:13;7.50;99.90
33994;DHT22;20673;48.980;8.138;2023-04-25T03:47:39;7.50;99.90
33994;DHT22;20673;48.980;8.138;2023-04-25T03:50:05;7.50;99.90
33994;DHT22;20673;48.980;8.138;2023-04-25T03:52:31;7.50;99.90
33994;DHT22;20673;48.980;8.138;2023-04-25T03:54:57;7.50;99.90
33994;DHT22;20673;48.980;8.138;2023-04-25T03:57:22;7.50;99.90
33994;DHT22;20673;48.980;8.138;2023-04-25T03:59:48;7.40;99.90
33994;DHT22;20673;48.980;8.138;2023-04-25T04:02:14;7.40;99.90
33994;DHT22;20673;48.980;8.138;2023-04-25T04:04:40;7.40;99.90
33994;DHT22;20673;48.980;8.138;2023-04-25T04:07:05;7.30;99.90
33994;DHT22;20673;48.980;8.138;2023-04-25T04:09:31;7.30;99.90
33994;DHT22;20673;48.980;8.138;2023-04-25T04:11:57;7.30;99.90
33994;DHT22;20673;48.980;8.138;2023-04-25T04:14:23;7.30;99.90
33994;DHT22;20673;48.980;8.138;2023-04-25T04:16:48;7.20;99.90
33994;DHT22;20673;48.980;8.138;2023-04-25T04:19:14;7.20;99.90
33994;DHT22;20673;48.980;8.138;2023-04-25T04:21:40;7.20;99.90
33994;DHT22;20673;48.980;8.138;2023-04-25T04:24:05;7.30;99.90
33994;DHT22;20673;48.980;8.138;2023-04-25T04:26:31;7.30;99.90
33994;DHT22;20673;48.980;8.138;2023-04-25T04:28:58;7.30;99.90
33994;DHT22;20673;48.980;8.138;2023-04-25T04:31:24;7.30;99.90
33994;DHT22;20673;48.980;8.138;2023-04-25T04:33:50;7.30;99.90
33994;DHT22;20673;48.980;8.138;2023-04-25T04:36:16;7.30;99.90
33994;DHT22;20673;48.980;8.138;2023-04-25T04:38:44;7.40;99.90
33994;DHT22;20673;48.980;8.138;2023-04-25T04:41:09;7.30;99.90
33994;DHT22;20673;48.980;8.138;2023-04-25T04:43:35;7.30;99.90
33994;DHT22;20673;48.980;8.138;2023-04-25T04:46:02;7.40;99.90
33994;DHT22;20673;48.980;8.138;2023-04-25T04:48:29;7.40;99.90
33994;DHT22;20673;48.980;8.138;2023-04-25T04:50:57;7.40;99.90
33994;DHT22;20673;48.980;8.138;2023-04-25T04:53:22;7.40;99.90
33994;DHT22;20673;48.980;8.138;2023-04-25T04:55:48;7.40;99.90
33994;DHT22;20673;48.980;8.138;2023-04-25T04:58:14;7.50;99.90
33994;DHT22;20673;48.980;8.138;2023-04-25T05:00:39;7.50;99.90
33994;DHT22;20673;48.980;8.138;2023-04-25T05:03:05;7.50;99.90
33994;DHT22;20673;48.980;8.138;2023-04-25T05:05:31;7.60;99.90
33994;DHT22;20673;48.980;8.138;2023-04-25T05:07:57;7.70;99.90
33994;DHT22;20673;48.980;8.138;2023-04-25T05:10:22;7.70;99.90
33994;DHT22;20673;48.980;8.138;2023-04-25T05:12:48;7.80;99.90
33994;DHT22;20673;48.980;8.138;2023-04-25T05:15:14;7.90;99.90
33994;DHT22;20673;48.980;8.138;2023-04-25T05:17:39;8.10;99.90
33994;DHT22;20673;48.980;8.138;2023-04-25T05:20:08;8.20;99.90
33994;DHT22;20673;48.980;8.138;2023-04-25T05:22:34;8.30;99.90
33994;DHT22;20673;48.980;8.138;2023-04-25T05:25:00;8.50;99.90
33994;DHT22;20673;48.980;8.138;2023-04-25T05:27:26;8.60;99.90
33994;DHT22;20673;48.980;8.138;2023-04-25T05:29:52;8.70;99.90
33994;DHT22;20673;48.980;8.138;2023-04-25T05:32:18;8.70;99.90
33994;DHT22;20673;48.980;8.138;2023-04-25T05:34:43;8.80;99.90
33994;DHT22;20673;48.980;8.138;2023-04-25T05:37:09;8.80;99.90
33994;DHT22;20673;48.980;8.138;2023-04-25T05:39:35;8.70;99.90
33994;DHT22;20673;48.980;8.138;2023-04-25T05:42:01;8.70;99.90
33994;DHT22;20673;48.980;8.138;2023-04-25T05:44:26;8.70;99.90
33994;DHT22;20673;48.980;8.138;2023-04-25T05:46:52;8.60;99.90
33994;DHT22;20673;48.980;8.138;2023-04-25T05:49:18;8.60;99.90
33994;DHT22;20673;48.980;8.138;2023-04-25T05:51:44;8.60;99.90
33994;DHT22;20673;48.980;8.138;2023-04-25T05:54:09;8.60;99.90
33994;DHT22;20673;48.980;8.138;2023-04-25T05:56:35;8.60;99.90
33994;DHT22;20673;48.980;8.138;2023-04-25T05:59:01;8.60;99.90
33994;DHT22;20673;48.980;8.138;2023-04-25T06:01:26;8.60;99.90
33994;DHT22;20673;48.980;8.138;2023-04-25T06:03:52;8.70;99.90
33994;DHT22;20673;48.980;8.138;2023-04-25T06:06:18;8.60;99.90
33994;DHT22;20673;48.980;8.138;2023-04-25T06:08:43;8.60;99.90
33994;DHT22;20673;48.980;8.138;2023-04-25T06:11:10;8.60;99.90
33994;DHT22;20673;48.980;8.138;2023-04-25T06:13:36;8.70;99.90
33994;DHT22;20673;48.980;8.138;2023-04-25T06:16:01;8.70;99.90
33994;DHT22;20673;48.980;8.138;2023-04-25T06:18:27;8.70;99.90
33994;DHT22;20673;48.980;8.138;2023-04-25T06:20:53;8.70;99.90
33994;DHT22;20673;48.980;8.138;2023-04-25T06:23:18;8.70;99.90
33994;DHT22;20673;48.980;8.138;2023-04-25T06:25:44;8.60;99.90
33994;DHT22;20673;48.980;8.138;2023-04-25T06:28:10;8.70;99.90
33994;DHT22;20673;48.980;8.138;2023-04-25T06:30:36;8.70;99.90
33994;DHT22;20673;48.980;8.138;2023-04-25T06:33:01;8.70;99.90
33994;DHT22;20673;48.980;8.138;2023-04-25T06:35:27;8.70;99.90
33994;DHT22;20673;48.980;8.138;2023-04-25T06:37:53;8.60;99.90
33994;DHT22;20673;48.980;8.138;2023-04-25T06:40:18;8.60;99.90
33994;DHT22;20673;48.980;8.138;2023-04-25T06:42:44;8.60;99.90
33994;DHT22;20673;48.980;8.138;2023-04-25T06:45:10;8.60;99.90
33994;DHT22;20673;48.980;8.138;2023-04-25T06:47:36;8.60;99.90
33994;DHT22;20673;48.980;8.138;2023-04-25T06:50:01;8.60;99.90
33994;DHT22;20673;48.980;8.138;2023-04-25T06:52:27;8.60;99.90
33994;DHT22;20673;48.980;8.138;2023-04-25T06:54:53;8.50;99.90
33994;DHT22;20673;48.980;8.138;2023-04-25T06:57:19;8.60;99.90
33994;DHT22;20673;48.980;8.138;2023-04-25T06:59:44;8.60;99.90
33994;DHT22;20673;48.980;8.138;2023-04-25T07:02:10;8.60;99.90
33994;DHT22;20673;48.980;8.138;2023-04-25T07:04:36;8.60;99.90
33994;DHT22;20673;48.980;8.138;2023-04-25T07:07:01;8.50;99.90
33994;DHT22;20673;48.980;8.138;2023-04-25T07:09:28;8.50;99.90
33994;DHT22;20673;48.980;8.138;2023-04-25T07:11:54;8.50;99.90
33994;DHT22;20673;48.980;8.138;2023-04-25T07:14:20;8.50;99.90
33994;DHT22;20673;48.980;8.138;2023-04-25T07:16:46;8.50;99.90
33994;DHT22;20673;48.980;8.138;2023-04-25T07:19:12;8.50;99.90
33994;DHT22;20673;48.980;8.138;2023-04-25T07:21:37;8.50;99.90
33994;DHT22;20673;48.980;8.138;2023-04-25T07:24:03;8.50;99.90
33994;DHT22;20673;48.980;8.138;2023-04-25T07:26:29;8.50;99.90
33994;DHT22;20673;48.980;8.138;2023-04-25T07:28:55;8.50;99.90
33994;DHT22;20673;48.980;8.138;2023-04-25T07:31:21;8.50;99.90
33994;DHT22;20673;48.980;8.138;2023-04-25T07:33:47;8.60;99.90
33994;DHT22;20673;48.980;8.138;2023-04-25T07:36:13;8.60;99.90
33994;DHT22;20673;48.980;8.138;2023-04-25T07:38:40;8.70;99.90
33994;DHT22;20673;48.980;8.138;2023-04-25T07:41:06;8.70;99.90
33994;DHT22;20673;48.980;8.138;2023-04-25T07:43:32;8.70;99.90
33994;DHT22;20673;48.980;8.138;2023-04-25T07:45:57;8.70;99.90
33994;DHT22;20673;48.980;8.138;2023-04-25T07:48:23;8.70;99.90
33994;DHT22;20673;48.980;8.138;2023-04-25T07:50:49;8.70;99.90
33994;DHT22;20673;48.980;8.138;2023-04-25T07:53:16;8.80;99.90
33994;DHT22;20673;48.980;8.138;2023-04-25T07:55:43;8.70;99.90
33994;DHT22;20673;48.980;8.138;2023-04-25T07:58:09;8.80;99.90
33994;DHT22;20673;48.980;8.138;2023-04-25T08:00:35;8.80;99.90
33994;DHT22;20673;48.980;8.138;2023-04-25T08:03:01;8.80;99.90
33994;DHT22;20673;48.980;8.138;2023-04-25T08:05:28;8.80;99.90
33994;DHT22;20673;48.980;8.138;2023-04-25T08:07:53;8.80;99.90
33994;DHT22;20673;48.980;8.138;2023-04-25T08:10:19;8.80;99.90
33994;DHT22;20673;48.980;8.138;2023-04-25T08:12:45;8.90;99.90
33994;DHT22;20673;48.980;8.138;2023-04-25T08:15:11;8.90;99.90
33994;DHT22;20673;48.980;8.138;2023-04-25T08:17:39;8.90;99.90
33994;DHT22;20673;48.980;8.138;2023-04-25T08:20:05;8.90;99.90
33994;DHT22;20673;48.980;8.138;2023-04-25T08:22:31;8.90;99.90
33994;DHT22;20673;48.980;8.138;2023-04-25T08:24:57;8.90;99.90
33994;DHT22;20673;48.980;8.138;2023-04-25T08:27:22;8.90;99.90
33994;DHT22;20673;48.980;8.138;2023-04-25T08:29:49;8.90;99.90
33994;DHT22;20673;48.980;8.138;2023-04-25T08:32:15;8.90;99.90
33994;DHT22;20673;48.980;8.138;2023-04-25T08:34:40;8.90;99.90
33994;DHT22;20673;48.980;8.138;2023-04-25T08:37:08;9.00;99.90
33994;DHT22;20673;48.980;8.138;2023-04-25T08:39:35;8.90;99.90
33994;DHT22;20673;48.980;8.138;2023-04-25T08:42:02;9.00;99.90
33994;DHT22;20673;48.980;8.138;2023-04-25T08:44:29;9.00;99.90
33994;DHT22;20673;48.980;8.138;2023-04-25T08:46:56;9.10;99.90
33994;DHT22;20673;48.980;8.138;2023-04-25T08:49:22;9.10;99.90
33994;DHT22;20673;48.980;8.138;2023-04-25T08:51:48;9.10;99.90
33994;DHT22;20673;48.980;8.138;2023-04-25T08:54:16;9.20;99.90
33994;DHT22;20673;48.980;8.138;2023-04-25T08:56:45;9.30;99.90
33994;DHT22;20673;48.980;8.138;2023-04-25T08:59:11;9.30;99.90
33994;DHT22;20673;48.980;8.138;2023-04-25T09:01:37;9.40;99.90
33994;DHT22;20673;48.980;8.138;2023-04-25T09:04:03;9.50;99.90
33994;DHT22;20673;48.980;8.138;2023-04-25T09:06:29;9.60;99.90
33994;DHT22;20673;48.980;8.138;2023-04-25T09:09:02;9.60;99.90
33994;DHT22;20673;48.980;8.138;2023-04-25T09:11:29;9.70;99.90
33994;DHT22;20673;48.980;8.138;2023-04-25T09:19:26;9.70;99.90
33994;DHT22;20673;48.980;8.138;2023-04-25T09:21:55;9.80;99.90
33994;DHT22;20673;48.980;8.138;2023-04-25T09:24:40;9.90;99.90
33994;DHT22;20673;48.980;8.138;2023-04-25T09:27:07;9.90;99.90
33994;DHT22;20673;48.980;8.138;2023-04-25T09:29:35;9.90;99.90
33994;DHT22;20673;48.980;8.138;2023-04-25T09:34:44;9.80;99.90
33994;DHT22;20673;48.980;8.138;2023-04-25T09:37:10;9.70;99.90
33994;DHT22;20673;48.980;8.138;2023-04-25T09:39:37;9.70;99.90
33994;DHT22;20673;48.980;8.138;2023-04-25T09:42:03;9.80;99.90
33994;DHT22;20673;48.980;8.138;2023-04-25T09:44:29;9.80;99.90
33994;DHT22;20673;48.980;8.138;2023-04-25T09:46:54;9.80;99.90
33994;DHT22;20673;48.980;8.138;2023-04-25T09:49:20;10.00;99.90
33994;DHT22;20673;48.980;8.138;2023-04-25T09:51:59;10.10;99.90
33994;DHT22;20673;48.980;8.138;2023-04-25T09:54:25;10.30;99.90
33994;DHT22;20673;48.980;8.138;2023-04-25T09:56:52;10.50;99.90
33994;DHT22;20673;48.980;8.138;2023-04-25T09:59:21;10.60;99.90
33994;DHT22;20673;48.980;8.138;2023-04-25T10:01:48;10.70;99.90
33994;DHT22;20673;48.980;8.138;2023-04-25T10:04:22;10.70;99.90
33994;DHT22;20673;48.980;8.138;2023-04-25T10:06:43;10.80;99.90
33994;DHT22;20673;48.980;8.138;2023-04-25T10:09:09;10.70;99.90
33994;DHT22;20673;48.980;8.138;2023-04-25T10:11:35;10.50;99.90
33994;DHT22;20673;48.980;8.138;2023-04-25T10:14:02;10.40;99.90
33994;DHT22;20673;48.980;8.138;2023-04-25T10:16:28;10.20;99.90
33994;DHT22;20673;48.980;8.138;2023-04-25T10:18:54;10.20;99.90
33994;DHT22;20673;48.980;8.138;2023-04-25T10:21:20;10.20;99.90
33994;DHT22;20673;48.980;8.138;2023-04-25T10:23:46;10.20;99.90
33994;DHT22;20673;48.980;8.138;2023-04-25T10:26:13;10.10;99.90
33994;DHT22;20673;48.980;8.138;2023-04-25T10:28:55;10.20;99.90
33994;DHT22;20673;48.980;8.138;2023-04-25T10:31:21;10.10;99.90
33994;DHT22;20673;48.980;8.138;2023-04-25T10:33:46;10.20;99.90
33994;DHT22;20673;48.980;8.138;2023-04-25T10:36:15;10.20;99.90
33994;DHT22;20673;48.980;8.138;2023-04-25T10:38:42;10.20;99.90
33994;DHT22;20673;48.980;8.138;2023-04-25T10:41:08;10.20;99.90
33994;DHT22;20673;48.980;8.138;2023-04-25T10:43:40;10.20;99.90
33994;DHT22;20673;48.980;8.138;2023-04-25T10:48:52;10.30;99.90
33994;DHT22;20673;48.980;8.138;2023-04-25T10:53:46;10.30;99.90
33994;DHT22;20673;48.980;8.138;2023-04-25T10:59:29;10.20;99.90
33994;DHT22;20673;48.980;8.138;2023-04-25T11:01:35;10.20;99.90
33994;DHT22;20673;48.980;8.138;2023-04-25T11:03:58;10.30;99.90
33994;DHT22;20673;48.980;8.138;2023-04-25T11:09:02;10.30;99.90
33994;DHT22;20673;48.980;8.138;2023-04-25T11:11:28;10.10;99.90
33994;DHT22;20673;48.980;8.138;2023-04-25T11:13:54;10.10;99.90
33994;DHT22;20673;48.980;8.138;2023-04-25T11:16:20;9.90;99.90
33994;DHT22;20673;48.980;8.138;2023-04-25T11:18:47;10.00;99.90
33994;DHT22;20673;48.980;8.138;2023-04-25T11:21:13;9.90;99.90
33994;DHT22;20673;48.980;8.138;2023-04-25T11:23:39;9.70;99.90
33994;DHT22;20673;48.980;8.138;2023-04-25T11:26:05;9.70;99.90
33994;DHT22;20673;48.980;8.138;2023-04-25T11:28:30;9.60;99.90
33994;DHT22;20673;48.980;8.138;2023-04-25T11:30:56;9.40;99.90
33994;DHT22;20673;48.980;8.138;2023-04-25T11:33:23;9.40;99.90
33994;DHT22;20673;48.980;8.138;2023-04-25T11:35:49;9.40;99.90
33994;DHT22;20673;48.980;8.138;2023-04-25T11:38:15;9.20;99.90
33994;DHT22;20673;48.980;8.138;2023-04-25T11:40:40;9.30;99.90
33994;DHT22;20673;48.980;8.138;2023-04-25T11:43:06;9.20;99.90
33994;DHT22;20673;48.980;8.138;2023-04-25T11:45:32;9.20;99.90
33994;DHT22;20673;48.980;8.138;2023-04-25T11:47:58;9.20;99.90
33994;DHT22;20673;48.980;8.138;2023-04-25T11:50:24;9.20;99.90
33994;DHT22;20673;48.980;8.138;2023-04-25T11:52:49;9.20;99.90
33994;DHT22;20673;48.980;8.138;2023-04-25T11:55:16;9.20;99.90
33994;DHT22;20673;48.980;8.138;2023-04-25T11:57:42;9.30;99.90
33994;DHT22;20673;48.980;8.138;2023-04-25T12:00:12;9.20;99.90
33994;DHT22;20673;48.980;8.138;2023-04-25T12:02:42;9.40;99.90
33994;DHT22;20673;48.980;8.138;2023-04-25T12:05:08;9.50;99.90
33994;DHT22;20673;48.980;8.138;2023-04-25T12:07:34;9.60;99.90
33994;DHT22;20673;48.980;8.138;2023-04-25T12:10:04;9.80;99.90
33994;DHT22;20673;48.980;8.138;2023-04-25T12:12:31;10.00;99.90
33994;DHT22;20673;48.980;8.138;2023-04-25T12:14:55;10.40;99.90
33994;DHT22;20673;48.980;8.138;2023-04-25T12:17:21;10.60;99.90
33994;DHT22;20673;48.980;8.138;2023-04-25T12:19:48;10.80;99.90
33994;DHT22;20673;48.980;8.138;2023-04-25T12:22:20;10.80;99.90
33994;DHT22;20673;48.980;8.138;2023-04-25T12:24:46;11.10;99.90
33994;DHT22;20673;48.980;8.138;2023-04-25T12:27:13;11.20;99.90
33994;DHT22;20673;48.980;8.138;2023-04-25T12:29:49;11.10;99.90
33994;DHT22;20673;48.980;8.138;2023-04-25T12:32:08;11.10;99.90
33994;DHT22;20673;48.980;8.138;2023-04-25T12:34:34;11.40;99.90
33994;DHT22;20673;48.980;8.138;2023-04-25T12:37:01;11.40;99.90
33994;DHT22;20673;48.980;8.138;2023-04-25T12:39:26;11.30;99.90
33994;DHT22;20673;48.980;8.138;2023-04-25T12:41:52;11.10;99.90
33994;DHT22;20673;48.980;8.138;2023-04-25T12:44:19;11.20;99.90
33994;DHT22;20673;48.980;8.138;2023-04-25T12:46:45;11.10;99.90
33994;DHT22;20673;48.980;8.138;2023-04-25T12:49:11;11.20;99.90
33994;DHT22;20673;48.980;8.138;2023-04-25T12:51:37;11.20;99.90
33994;DHT22;20673;48.980;8.138;2023-04-25T12:54:03;11.30;99.90
33994;DHT22;20673;48.980;8.138;2023-04-25T12:56:30;11.60;99.90
33994;DHT22;20673;48.980;8.138;2023-04-25T12:58:57;11.90;99.90
33994;DHT22;20673;48.980;8.138;2023-04-25T13:01:23;12.00;99.90
33994;DHT22;20673;48.980;8.138;2023-04-25T13:03:48;12.10;99.90
33994;DHT22;20673;48.980;8.138;2023-04-25T13:06:15;12.20;99.90
33994;DHT22;20673;48.980;8.138;2023-04-25T13:08:41;12.10;99.90
33994;DHT22;20673;48.980;8.138;2023-04-25T13:11:07;12.20;99.90
33994;DHT22;20673;48.980;8.138;2023-04-25T13:13:33;12.30;99.90
33994;DHT22;20673;48.980;8.138;2023-04-25T13:16:00;12.70;99.90
33994;DHT22;20673;48.980;8.138;2023-04-25T13:18:28;12.90;99.90
33994;DHT22;20673;48.980;8.138;2023-04-25T13:20:54;13.30;99.90
33994;DHT22;20673;48.980;8.138;2023-04-25T13:23:20;13.80;99.90
33994;DHT22;20673;48.980;8.138;2023-04-25T13:25:46;14.00;99.90
33994;DHT22;20673;48.980;8.138;2023-04-25T13:28:13;14.10;99.90
33994;DHT22;20673;48.980;8.138;2023-04-25T13:30:39;13.90;99.90
33994;DHT22;20673;48.980;8.138;2023-04-25T13:33:04;13.80;99.90
33994;DHT22;20673;48.980;8.138;2023-04-25T13:35:34;13.60;99.90
33994;DHT22;20673;48.980;8.138;2023-04-25T13:38:00;13.60;99.90
33994;DHT22;20673;48.980;8.138;2023-04-25T13:40:26;13.50;99.90
33994;DHT22;20673;48.980;8.138;2023-04-25T13:42:52;13.40;99.90
33994;DHT22;20673;48.980;8.138;2023-04-25T13:45:18;13.80;99.90
33994;DHT22;20673;48.980;8.138;2023-04-25T13:47:45;13.80;99.90
33994;DHT22;20673;48.980;8.138;2023-04-25T13:50:12;13.90;99.90
33994;DHT22;20673;48.980;8.138;2023-04-25T13:52:39;13.70;99.90
33994;DHT22;20673;48.980;8.138;2023-04-25T13:55:05;13.60;99.90
33994;DHT22;20673;48.980;8.138;2023-04-25T13:57:32;14.00;99.90
33994;DHT22;20673;48.980;8.138;2023-04-25T13:59:58;14.70;99.90
33994;DHT22;20673;48.980;8.138;2023-04-25T14:02:24;15.50;99.90
33994;DHT22;20673;48.980;8.138;2023-04-25T14:04:51;14.90;99.90
33994;DHT22;20673;48.980;8.138;2023-04-25T14:07:17;14.40;99.90
33994;DHT22;20673;48.980;8.138;2023-04-25T14:09:44;14.40;99.90
33994;DHT22;20673;48.980;8.138;2023-04-25T14:12:10;13.80;99.90
33994;DHT22;20673;48.980;8.138;2023-04-25T14:14:38;13.50;99.90
33994;DHT22;20673;48.980;8.138;2023-04-25T14:17:04;13.10;99.90
33994;DHT22;20673;48.980;8.138;2023-04-25T14:19:30;12.90;99.90
33994;DHT22;20673;48.980;8.138;2023-04-25T14:21:56;12.60;99.90
33994;DHT22;20673;48.980;8.138;2023-04-25T14:24:21;12.40;99.90
33994;DHT22;20673;48.980;8.138;2023-04-25T14:26:47;12.50;99.90
33994;DHT22;20673;48.980;8.138;2023-04-25T14:29:13;12.20;99.90
33994;DHT22;20673;48.980;8.138;2023-04-25T14:31:39;11.80;99.90
33994;DHT22;20673;48.980;8.138;2023-04-25T14:34:05;11.90;99.90
33994;DHT22;20673;48.980;8.138;2023-04-25T14:36:31;11.80;99.90
33994;DHT22;20673;48.980;8.138;2023-04-25T14:38:57;11.50;99.90
33994;DHT22;20673;48.980;8.138;2023-04-25T14:41:24;11.40;99.90
33994;DHT22;20673;48.980;8.138;2023-04-25T14:43:50;11.20;99.90
33994;DHT22;20673;48.980;8.138;2023-04-25T14:46:16;11.00;99.90
33994;DHT22;20673;48.980;8.138;2023-04-25T14:48:42;10.80;99.90
33994;DHT22;20673;48.980;8.138;2023-04-25T14:51:07;10.60;99.90
33994;DHT22;20673;48.980;8.138;2023-04-25T14:53:33;10.40;99.90
33994;DHT22;20673;48.980;8.138;2023-04-25T14:55:59;10.30;99.90
33994;DHT22;20673;48.980;8.138;2023-04-25T14:58:25;10.10;99.90
33994;DHT22;20673;48.980;8.138;2023-04-25T15:00:51;9.90;99.90
33994;DHT22;20673;48.980;8.138;2023-04-25T15:03:17;9.90;99.90
33994;DHT22;20673;48.980;8.138;2023-04-25T15:05:43;9.70;99.90
33994;DHT22;20673;48.980;8.138;2023-04-25T15:08:09;9.60;99.90
33994;DHT22;20673;48.980;8.138;2023-04-25T15:10:35;9.40;99.90
33994;DHT22;20673;48.980;8.138;2023-04-25T15:13:01;9.40;99.90
33994;DHT22;20673;48.980;8.138;2023-04-25T15:15:27;9.20;99.90
33994;DHT22;20673;48.980;8.138;2023-04-25T15:17:53;8.90;99.90
33994;DHT22;20673;48.980;8.138;2023-04-25T15:20:20;8.90;99.90
33994;DHT22;20673;48.980;8.138;2023-04-25T15:22:47;8.70;99.90
33994;DHT22;20673;48.980;8.138;2023-04-25T15:25:14;8.60;99.90
33994;DHT22;20673;48.980;8.138;2023-04-25T15:27:41;8.50;99.90
33994;DHT22;20673;48.980;8.138;2023-04-25T15:30:09;8.40;99.90
33994;DHT22;20673;48.980;8.138;2023-04-25T15:32:36;8.40;99.90
33994;DHT22;20673;48.980;8.138;2023-04-25T15:35:03;8.40;99.90
33994;DHT22;20673;48.980;8.138;2023-04-25T15:37:29;8.40;99.90
33994;DHT22;20673;48.980;8.138;2023-04-25T15:40:03;8.60;99.90
33994;DHT22;20673;48.980;8.138;2023-04-25T15:42:34;8.80;99.90
33994;DHT22;20673;48.980;8.138;2023-04-25T15:45:00;8.90;99.90
33994;DHT22;20673;48.980;8.138;2023-04-25T15:47:25;8.90;99.90
33994;DHT22;20673;48.980;8.138;2023-04-25T15:49:51;8.90;99.90
33994;DHT22;20673;48.980;8.138;2023-04-25T15:52:17;9.00;99.90
33994;DHT22;20673;48.980;8.138;2023-04-25T15:54:45;9.00;99.90